createdAt,value
2022-08-09T00:04:10.599Z,93.50
2022-08-09T00:07:54.286Z,93.50
2022-08-09T00:12:03.473Z,93.70
2022-08-09T00:16:08.980Z,93.40
2022-08-09T00:20:15.778Z,93.30
2022-08-09T00:24:18.615Z,93.40
2022-08-09T00:28:23.447Z,93.30
2022-08-09T00:32:31.535Z,93.20
2022-08-09T00:36:34.403Z,93.70
2022-08-09T00:44:41.262Z,93.60
2022-08-09T00:48:47.595Z,93.50
2022-08-09T00:52:53.876Z,93.40
2022-08-09T00:56:56.838Z,93.50
2022-08-09T01:00:59.814Z,93.30
2022-08-09T01:05:14.056Z,93.60
2022-08-09T01:09:21.249Z,93.70
2022-08-09T01:13:31.063Z,93.60
2022-08-09T01:17:47.194Z,93.60
2022-08-09T01:21:54.374Z,93.40
2022-08-09T01:26:15.129Z,93.80
2022-08-09T01:30:35.681Z,93.60
2022-08-09T01:34:44.162Z,93.70
2022-08-09T01:38:48.995Z,94.00
2022-08-09T01:42:52.298Z,93.10
2022-08-09T01:46:56.853Z,93.20
2022-08-09T01:51:00.813Z,93.70
2022-08-09T01:55:06.963Z,94.10
2022-08-09T01:59:16.189Z,94.10
2022-08-09T02:03:21.485Z,94.30
2022-08-09T02:08:39.642Z,94.00
2022-08-09T02:11:49.613Z,93.90
2022-08-09T02:15:55.218Z,93.80
2022-08-09T02:20:02.094Z,93.70
2022-08-09T02:24:07.032Z,93.80
2022-08-09T02:28:17.847Z,94.20
2022-08-09T02:32:22.265Z,94.00
2022-08-09T02:36:31.284Z,93.90
2022-08-09T02:40:35.807Z,94.40
2022-08-09T02:44:40.744Z,94.20
2022-08-09T02:48:46.004Z,94.40
2022-08-09T02:52:55.413Z,94.20
2022-08-09T02:57:01.929Z,94.70
2022-08-09T03:01:21.822Z,94.50
2022-08-09T03:05:34.378Z,94.10
2022-08-09T03:09:42.954Z,94.40
2022-08-09T03:13:59.406Z,94.90
2022-08-09T03:18:09.836Z,95.00
2022-08-09T03:22:24.918Z,95.00
2022-08-09T03:26:34.915Z,94.70
2022-08-09T03:30:48.941Z,94.80
2022-08-09T03:34:54.159Z,94.50
2022-08-09T03:38:58.567Z,94.90
2022-08-09T03:43:02.768Z,95.10
2022-08-09T03:47:05.747Z,94.80
2022-08-09T03:51:44.011Z,95.20
2022-08-09T03:55:36.072Z,95.10
2022-08-09T03:59:53.910Z,95.20
2022-08-09T04:04:02.325Z,95.30
2022-08-09T04:08:07.681Z,95.10
2022-08-09T04:12:30.956Z,95.20
2022-08-09T04:16:35.780Z,95.00
2022-08-09T04:20:38.674Z,94.90
2022-08-09T04:24:41.701Z,95.40
2022-08-09T04:28:46.859Z,94.90
2022-08-09T04:32:51.536Z,95.30
2022-08-09T04:36:54.383Z,95.20
2022-08-09T04:40:58.238Z,94.80
2022-08-09T04:45:01.425Z,95.10
2022-08-09T04:49:06.026Z,95.20
2022-08-09T04:53:13.452Z,95.30
2022-08-09T04:57:16.736Z,95.10
2022-08-09T05:01:26.776Z,95.00
2022-08-09T05:05:32.182Z,95.20
2022-08-09T05:09:53.848Z,95.20
2022-08-09T05:13:58.766Z,95.00
2022-08-09T05:18:37.691Z,95.10
2022-08-09T05:22:33.611Z,95.10
2022-08-09T05:26:46.301Z,95.10
2022-08-09T05:30:51.599Z,95.00
2022-08-09T05:34:54.779Z,94.70
2022-08-09T05:39:00.170Z,94.80
2022-08-09T05:43:03.129Z,94.80
2022-08-09T05:47:07.708Z,94.90
2022-08-09T05:51:16.882Z,95.10
2022-08-09T05:55:36.560Z,94.60
2022-08-09T05:59:40.102Z,95.40
2022-08-09T06:03:58.076Z,94.70
2022-08-09T06:08:05.413Z,95.20
2022-08-09T06:12:15.494Z,95.40
2022-08-09T06:16:20.045Z,96.30
2022-08-09T06:20:22.945Z,95.50
2022-08-09T06:24:25.746Z,95.60
2022-08-09T06:36:59.694Z,97.10
2022-08-09T06:41:03.504Z,96.70
2022-08-09T06:46:06.627Z,96.10
2022-08-09T06:50:11.298Z,95.70
2022-08-09T06:53:55.983Z,96.10
2022-08-09T06:58:04.805Z,97.30
2022-08-09T07:02:07.792Z,95.90
2022-08-09T07:30:55.151Z,96.10
2022-08-09T07:34:58.116Z,96.70
2022-08-09T07:39:02.298Z,96.90
2022-08-09T08:00:09.360Z,96.10
2022-08-09T08:04:12.152Z,96.50
2022-08-09T08:09:01.019Z,96.80
2022-08-09T08:12:43.193Z,96.60
2022-08-09T08:17:00.447Z,97.10
2022-08-09T08:21:04.156Z,96.60
2022-08-09T08:25:13.480Z,97.00
2022-08-09T08:29:20.308Z,96.70
2022-08-09T08:33:49.693Z,97.00
2022-08-09T08:38:02.296Z,97.10
2022-08-09T08:42:09.511Z,97.40
2022-08-09T08:46:33.398Z,97.40
2022-08-09T08:50:38.807Z,97.00
2022-08-09T08:54:41.623Z,97.30
2022-08-09T08:58:46.421Z,97.00
2022-08-09T09:02:52.958Z,97.30
2022-08-09T09:07:02.307Z,97.30
2022-08-09T09:11:06.155Z,97.30
2022-08-09T09:15:09.229Z,97.40
2022-08-09T09:19:37.004Z,97.40
2022-08-09T09:23:49.582Z,97.40
2022-08-09T09:28:03.733Z,97.40
2022-08-09T09:32:15.689Z,97.50
2022-08-09T09:36:20.395Z,97.50
2022-08-09T09:40:41.818Z,97.40
2022-08-09T09:44:56.674Z,97.40
2022-08-09T09:49:00.294Z,97.30
2022-08-09T09:53:04.121Z,97.40
2022-08-09T09:58:03.221Z,97.40
2022-08-09T10:01:40.790Z,97.30
2022-08-09T10:06:03.310Z,96.50
2022-08-09T10:10:07.917Z,96.50
2022-08-09T10:14:30.568Z,96.60
2022-08-09T10:18:36.161Z,96.40
2022-08-09T10:22:39.345Z,96.60
2022-08-09T10:26:42.235Z,96.70
2022-08-09T10:35:14.716Z,95.50
2022-08-09T10:39:19.483Z,95.40
2022-08-09T10:43:22.800Z,95.40
2022-08-09T10:48:13.449Z,95.40
2022-08-09T10:52:03.196Z,95.50
2022-08-09T10:56:17.559Z,95.30
2022-08-09T11:00:35.684Z,95.50
2022-08-09T11:04:56.093Z,95.50
2022-08-09T11:09:08.647Z,95.50
2022-08-09T11:13:49.328Z,95.20
2022-08-09T11:17:46.171Z,95.20
2022-08-09T11:21:57.102Z,94.80
2022-08-09T11:26:28.607Z,94.30
2022-08-09T11:30:35.665Z,94.00
2022-08-09T11:34:43.976Z,97.50
2022-08-09T11:39:00.760Z,93.50
2022-08-09T11:43:04.142Z,92.70
2022-08-09T11:47:07.016Z,93.10
2022-08-09T11:52:54.089Z,91.70
2022-08-09T11:55:52.020Z,92.50
2022-08-09T11:59:56.908Z,92.50
2022-08-09T12:04:00.436Z,92.20
2022-08-09T12:08:08.070Z,92.00
2022-08-09T12:12:28.833Z,91.30
2022-08-09T12:16:38.196Z,92.00
2022-08-09T12:20:43.676Z,91.50
2022-08-09T12:24:49.482Z,90.60
2022-08-09T12:29:15.215Z,85.20
2022-08-09T12:33:20.844Z,91.60
2022-08-09T12:37:31.550Z,91.30
2022-08-09T12:41:40.039Z,91.40
2022-08-09T12:46:00.405Z,91.60
2022-08-09T12:50:19.922Z,91.20
2022-08-09T12:54:26.709Z,90.70
2022-08-09T12:58:29.536Z,83.40
2022-08-09T13:02:48.339Z,88.90
2022-08-09T13:06:58.761Z,90.60
2022-08-09T13:11:02.469Z,88.70
2022-08-09T13:15:25.282Z,87.60
2022-08-09T13:20:10.100Z,90.60
2022-08-09T13:24:44.546Z,82.10
2022-08-09T13:28:34.136Z,86.70
2022-08-09T13:32:45.991Z,87.60
2022-08-09T13:36:52.414Z,87.10
2022-08-09T13:41:54.353Z,88.50
2022-08-09T13:45:32.211Z,88.60
2022-08-09T13:49:57.374Z,89.80
2022-08-09T13:54:01.849Z,90.00
2022-08-09T13:58:08.057Z,87.80
2022-08-09T14:02:16.815Z,87.90
2022-08-09T14:06:29.521Z,88.40
2022-08-09T14:10:37.701Z,83.70
2022-08-09T14:14:54.034Z,83.20
2022-08-09T14:18:59.674Z,85.50
2022-08-09T14:23:02.576Z,86.80
2022-08-09T14:27:20.023Z,86.50
2022-08-09T14:31:36.242Z,88.40
2022-08-09T14:35:52.928Z,88.40
2022-08-09T14:39:56.993Z,84.60
2022-08-09T14:43:59.872Z,88.60
2022-08-09T14:48:07.076Z,88.40
2022-08-09T14:52:10.475Z,87.80
2022-08-09T14:56:13.385Z,88.40
2022-08-09T15:00:16.354Z,79.60
2022-08-09T15:04:20.660Z,82.70
2022-08-09T15:08:30.294Z,84.90
2022-08-09T15:12:33.779Z,82.00
2022-08-09T15:16:36.798Z,83.40
2022-08-09T15:22:00.682Z,83.10
2022-08-09T15:25:06.051Z,82.90
2022-08-09T15:29:09.672Z,82.10
2022-08-09T15:50:28.939Z,82.90
2022-08-09T15:54:43.009Z,84.00
2022-08-09T15:58:51.432Z,83.80
2022-08-09T16:02:56.249Z,84.30
2022-08-09T16:07:01.927Z,85.40
2022-08-09T16:56:50.783Z,82.20
2022-08-09T17:00:54.893Z,81.80
2022-08-09T17:04:58.164Z,78.50
2022-08-09T17:09:17.838Z,77.60
2022-08-09T17:13:25.194Z,80.70
2022-08-09T17:17:51.286Z,79.00
2022-08-09T17:21:55.829Z,79.10
2022-08-09T17:26:01.943Z,78.60
2022-08-09T17:30:14.094Z,77.30
2022-08-09T17:34:38.054Z,78.00
2022-08-09T17:38:41.291Z,77.20
2022-08-09T17:42:59.764Z,77.80
2022-08-09T17:47:15.195Z,77.60
2022-08-09T17:51:19.936Z,77.90
2022-08-09T17:55:23.005Z,77.60
2022-08-09T17:59:26.480Z,78.40
2022-08-09T18:03:42.392Z,78.40
2022-08-09T18:07:48.695Z,79.00
2022-08-09T18:12:14.574Z,79.30
2022-08-09T18:16:16.378Z,79.60
2022-08-09T18:20:58.278Z,79.60
2022-08-09T18:24:43.704Z,79.70
2022-08-09T18:30:34.699Z,79.70
2022-08-09T18:33:12.830Z,80.00
2022-08-09T18:37:47.351Z,80.10
2022-08-09T18:41:53.275Z,80.40
2022-08-09T18:46:50.611Z,80.70
2022-08-09T18:50:19.445Z,80.70
2022-08-09T18:54:28.479Z,81.00
2022-08-09T18:58:33.214Z,81.20
2022-08-09T19:02:36.394Z,81.50
2022-08-09T19:06:39.345Z,81.80
2022-08-09T19:10:54.106Z,82.00
2022-08-09T19:14:57.328Z,82.00
2022-08-09T19:19:00.507Z,82.30
2022-08-09T19:23:06.499Z,82.20
2022-08-09T19:27:11.106Z,82.30
2022-08-09T19:31:17.245Z,82.40
2022-08-09T19:35:20.096Z,82.40
2022-08-09T19:40:02.791Z,82.50
2022-08-09T19:44:02.272Z,82.00
2022-08-09T19:48:05.975Z,82.60
2022-08-09T19:52:14.147Z,83.10
2022-08-09T19:56:17.115Z,82.50
2022-08-09T20:00:33.090Z,83.10
2022-08-09T20:04:40.409Z,83.80
2022-08-09T20:08:50.746Z,84.20
2022-08-09T20:12:53.581Z,84.40
2022-08-09T20:16:58.168Z,84.30
2022-08-09T20:21:02.071Z,84.20
2022-08-09T20:25:05.378Z,85.10
2022-08-09T20:29:18.588Z,84.60
2022-08-09T20:33:23.479Z,84.60
2022-08-09T20:38:08.640Z,85.10
2022-08-09T20:41:50.015Z,84.90
2022-08-09T20:45:59.228Z,85.90
2022-08-09T20:50:14.745Z,85.80
2022-08-09T20:54:51.976Z,86.20
2022-08-09T20:58:58.009Z,86.10
2022-08-09T21:03:01.997Z,86.70
2022-08-09T21:07:12.043Z,86.60
2022-08-09T21:15:39.820Z,86.50
2022-08-09T21:20:17.591Z,87.40
2022-08-09T21:24:28.580Z,87.50
2022-08-09T21:28:36.261Z,87.40
2022-08-09T21:32:41.340Z,87.70
2022-08-09T21:36:55.432Z,88.10
2022-08-09T21:41:00.794Z,88.30
2022-08-09T21:45:04.116Z,89.00
2022-08-09T21:49:07.446Z,89.70
2022-08-09T21:53:15.613Z,90.50
2022-08-09T21:57:38.844Z,90.10
2022-08-09T22:02:01.490Z,89.40
2022-08-09T22:06:05.818Z,90.40
2022-08-09T22:10:09.308Z,91.40
2022-08-09T22:14:14.857Z,90.20
2022-08-09T22:18:30.815Z,89.70
2022-08-09T22:22:36.148Z,89.70
2022-08-09T22:26:40.140Z,89.70
2022-08-09T22:30:52.266Z,90.60
2022-08-09T22:35:02.715Z,90.30
2022-08-09T22:39:09.916Z,90.90
2022-08-09T22:44:01.691Z,91.20
2022-08-09T22:48:33.850Z,90.50
2022-08-09T22:52:20.005Z,91.30
2022-08-09T22:56:30.564Z,90.60
2022-08-09T23:00:37.449Z,91.10
2022-08-09T23:04:41.904Z,90.50
2022-08-09T23:08:47.673Z,90.50
2022-08-09T23:12:50.554Z,90.20
2022-08-09T23:16:53.445Z,90.70
2022-08-09T23:20:57.702Z,90.40
2022-08-09T23:25:00.631Z,91.00
2022-08-09T23:29:03.560Z,91.10
2022-08-09T23:33:06.440Z,91.10
2022-08-09T23:37:10.771Z,91.00
2022-08-09T23:41:27.565Z,91.20
2022-08-09T23:45:37.491Z,91.20
2022-08-09T23:49:41.240Z,91.40
2022-08-09T23:53:45.483Z,91.20
2022-08-09T23:58:07.236Z,91.40
